Time;durP1;ratioP1;P1;durP2;ratioP2;P2;SDS_P1;SDS_P2;PMS_P1;PMS_P2;Temp;Humidity;BMP_temperature;BMP_pressure;BME280_temperature;BME280_humidity;BME280_pressure;Samples;Min_cycle;Max_cycle;Signal;HPM_P1;HPM_P2
2023/07/30 00:02:10;;;;;;;2.80;2.40;;;;;;;17.88;82.72;99018.04;219240;1257;142168;-69
2023/07/30 00:07:15;;;;;;;4.10;2.20;;;;;;;17.90;82.92;99012.65;220530;1256;140571;-70
2023/07/30 00:12:22;;;;;;;3.00;2.80;;;;;;;17.91;83.12;99015.06;220165;1255;141210;-67
2023/07/30 00:17:26;;;;;;;2.80;2.70;;;;;;;17.90;83.29;99007.59;219312;1257;140851;-67
2023/07/30 00:22:30;;;;;;;6.10;2.50;;;;;;;17.93;83.49;99020.73;218495;1256;621806;-69
2023/07/30 00:27:35;;;;;;;3.30;3.00;;;;;;;17.97;83.61;99028.96;217582;1257;140242;-67
2023/07/30 00:32:43;;;;;;;3.00;2.80;;;;;;;17.97;83.64;99030.59;219448;1257;140099;-69
2023/07/30 00:37:49;;;;;;;6.40;3.10;;;;;;;17.94;83.66;99038.52;217934;1257;140415;-69
2023/07/30 00:42:54;;;;;;;3.60;3.30;;;;;;;17.90;83.82;99048.04;217499;1256;140342;-67
2023/07/30 00:48:00;;;;;;;4.00;3.70;;;;;;;17.83;84.06;99051.17;218068;1258;139896;-67
2023/07/30 00:53:05;;;;;;;3.80;3.30;;;;;;;17.78;84.30;99054.02;217809;1259;140408;-66
2023/07/30 00:58:11;;;;;;;5.20;3.70;;;;;;;17.75;84.47;99054.23;219258;1258;140153;-68
2023/07/30 01:03:16;;;;;;;4.00;3.70;;;;;;;17.74;84.57;99051.23;218049;1259;141776;-67
2023/07/30 01:08:21;;;;;;;2.90;2.70;;;;;;;17.74;84.59;99051.49;218014;1256;141086;-68
2023/07/30 01:13:29;;;;;;;2.60;2.30;;;;;;;17.71;84.61;99053.88;218402;1257;140441;-67
2023/07/30 01:18:33;;;;;;;4.60;2.60;;;;;;;17.68;84.40;99064.35;217885;1257;140120;-67
2023/07/30 01:23:38;;;;;;;2.60;2.40;;;;;;;17.64;84.56;99063.44;218948;1257;140747;-70
2023/07/30 01:28:49;;;;;;;2.60;2.10;;;;;;;17.61;84.53;99065.73;218438;1257;140380;-66
2023/07/30 01:33:56;;;;;;;11.10;2.70;;;;;;;17.59;84.68;99072.84;217987;1256;222662;-70
2023/07/30 01:39:02;;;;;;;3.60;2.80;;;;;;;17.57;84.97;99078.31;219824;1254;140453;-68
2023/07/30 01:44:07;;;;;;;3.00;2.70;;;;;;;17.57;85.13;99081.55;218455;1259;140004;-72
2023/07/30 01:49:11;;;;;;;3.30;3.00;;;;;;;17.56;85.22;99075.90;218829;1254;141819;-72
2023/07/30 01:54:15;;;;;;;4.50;3.90;;;;;;;17.56;85.29;99083.19;220499;1254;140141;-69
2023/07/30 01:59:20;;;;;;;5.20;3.90;;;;;;;17.58;85.40;99091.94;220766;1254;140832;-67
2023/07/30 02:04:24;;;;;;;5.40;4.90;;;;;;;17.60;85.48;99089.21;219831;1254;140193;-66
2023/07/30 02:09:28;;;;;;;9.80;5.40;;;;;;;17.59;85.46;99092.02;219778;1254;140230;-66
2023/07/30 02:14:33;;;;;;;6.90;5.80;;;;;;;17.60;85.57;99093.30;218873;1254;139924;-68
2023/07/30 02:19:37;;;;;;;7.10;6.40;;;;;;;17.59;85.78;99094.49;219972;1256;141105;-69
2023/07/30 02:24:42;;;;;;;14.80;7.10;;;;;;;17.61;85.85;99094.64;219521;1257;141652;-69
2023/07/30 02:29:46;;;;;;;6.10;5.50;;;;;;;17.61;85.88;99100.13;219456;1256;140370;-69
2023/07/30 02:34:51;;;;;;;7.40;6.40;;;;;;;17.60;86.12;99097.17;219129;1258;140934;-68
2023/07/30 02:39:56;;;;;;;6.60;6.10;;;;;;;17.57;86.20;99107.63;217944;1254;140112;-67
2023/07/30 02:45:01;;;;;;;7.50;6.70;;;;;;;17.57;86.44;99110.86;218789;1258;140598;-67
2023/07/30 02:50:08;;;;;;;6.10;5.60;;;;;;;17.59;86.46;99114.02;218266;1257;140300;-68
2023/07/30 02:55:13;;;;;;;40.00;10.50;;;;;;;17.59;86.70;99107.33;218056;1259;140424;-67
2023/07/30 03:00:18;;;;;;;8.80;7.10;;;;;;;17.61;86.85;99109.89;218821;1254;140715;-66
2023/07/30 03:05:23;;;;;;;7.70;6.90;;;;;;;17.62;86.94;99108.04;217946;1258;141404;-65
2023/07/30 03:10:27;;;;;;;10.00;8.10;;;;;;;17.63;86.92;99110.23;218670;1254;141005;-65
2023/07/30 03:15:33;;;;;;;10.60;7.20;;;;;;;17.62;86.96;99108.52;218095;1259;140568;-67
2023/07/30 03:20:38;;;;;;;8.60;7.70;;;;;;;17.61;87.25;99109.77;219244;1254;142671;-68
2023/07/30 03:25:42;;;;;;;22.30;8.70;;;;;;;17.61;87.43;99113.82;218378;1259;140249;-67
2023/07/30 03:30:46;;;;;;;12.30;8.10;;;;;;;17.62;87.45;99120.48;219820;1259;141113;-67
2023/07/30 03:35:51;;;;;;;8.00;7.10;;;;;;;17.62;87.66;99118.50;219844;1257;141067;-67
2023/07/30 03:40:55;;;;;;;9.30;8.00;;;;;;;17.65;87.72;99118.48;219612;1259;140410;-67
2023/07/30 03:45:58;;;;;;;13.50;9.00;;;;;;;17.68;87.72;99127.85;219787;1257;140965;-67
2023/07/30 03:51:02;;;;;;;8.90;7.80;;;;;;;17.72;87.94;99131.68;220508;1257;140811;-66
2023/07/30 03:56:06;;;;;;;11.20;9.90;;;;;;;17.79;87.85;99141.40;220721;1257;153080;-67
2023/07/30 04:01:11;;;;;;;10.20;8.30;;;;;;;17.87;87.65;99144.22;220343;1257;140290;-67
2023/07/30 04:06:15;;;;;;;10.20;7.90;;;;;;;17.92;87.68;99148.13;220387;1259;141801;-66
2023/07/30 04:11:19;;;;;;;8.60;7.80;;;;;;;18.02;87.64;99152.81;219602;1260;141681;-66
2023/07/30 04:16:22;;;;;;;9.90;8.50;;;;;;;18.11;87.63;99160.77;218056;1257;140285;-66
2023/07/30 04:21:27;;;;;;;10.50;9.40;;;;;;;18.16;87.64;99169.15;217977;1258;140204;-66
2023/07/30 04:26:30;;;;;;;11.70;10.00;;;;;;;18.19;87.68;99175.91;218617;1259;140603;-67
2023/07/30 04:31:35;;;;;;;9.10;8.20;;;;;;;18.21;87.80;99177.27;219008;1257;141000;-66
2023/07/30 04:36:40;;;;;;;12.40;9.20;;;;;;;18.21;87.57;99182.30;219721;1257;141130;-67
2023/07/30 04:41:44;;;;;;;7.90;7.30;;;;;;;18.23;87.69;99188.67;218194;1257;140198;-66
2023/07/30 04:46:48;;;;;;;11.80;9.40;;;;;;;18.22;87.62;99193.45;218207;1254;140649;-67
2023/07/30 04:51:53;;;;;;;11.50;10.40;;;;;;;18.19;87.86;99197.70;218669;1257;140219;-67
2023/07/30 04:56:58;;;;;;;11.30;10.20;;;;;;;18.20;88.00;99205.77;217886;1259;140353;-66
2023/07/30 05:02:01;;;;;;;10.40;9.40;;;;;;;18.19;87.82;99205.91;217824;1256;140787;-68
2023/07/30 05:07:07;;;;;;;12.10;10.90;;;;;;;18.15;87.89;99203.92;218170;1259;142364;-69
2023/07/30 05:12:11;;;;;;;14.00;10.30;;;;;;;18.11;87.83;99207.92;218316;1260;140770;-68
2023/07/30 05:17:16;;;;;;;13.90;10.40;;;;;;;18.05;87.90;99213.35;218724;1258;140395;-69
2023/07/30 05:22:21;;;;;;;13.50;10.50;;;;;;;18.05;88.09;99217.52;219442;1258;140293;-67
2023/07/30 05:27:28;;;;;;;13.60;12.20;;;;;;;18.03;87.79;99217.56;219102;1260;141008;-69
2023/07/30 05:32:33;;;;;;;12.70;11.50;;;;;;;18.00;87.78;99221.63;218232;1260;140400;-68
2023/07/30 05:37:37;;;;;;;12.40;11.20;;;;;;;17.97;87.76;99223.92;218778;1254;140489;-69
2023/07/30 05:42:41;;;;;;;11.40;10.20;;;;;;;17.97;87.84;99229.16;218349;1254;140162;-68
2023/07/30 05:47:46;;;;;;;12.40;9.00;;;;;;;18.02;87.84;99226.73;220673;1254;140868;-68
2023/07/30 05:52:50;;;;;;;11.60;9.90;;;;;;;18.04;87.59;99235.73;220706;1254;140230;-68
2023/07/30 05:57:55;;;;;;;10.80;9.80;;;;;;;18.03;87.48;99228.19;220643;1254;140813;-67
2023/07/30 06:03:01;;;;;;;9.60;8.20;;;;;;;18.04;87.66;99232.95;219772;1254;141806;-66
2023/07/30 06:08:05;;;;;;;16.10;10.40;;;;;;;18.06;87.30;99230.66;219613;1254;140461;-68
2023/07/30 06:13:09;;;;;;;14.30;12.00;;;;;;;18.10;87.53;99232.50;218316;1254;140533;-67
2023/07/30 06:18:13;;;;;;;12.40;10.20;;;;;;;18.17;87.49;99238.84;218307;1258;140541;-67
2023/07/30 06:23:17;;;;;;;12.80;11.40;;;;;;;18.21;87.57;99240.99;218979;1254;140615;-67
2023/07/30 06:28:23;;;;;;;13.90;12.10;;;;;;;18.16;87.46;99245.22;218808;1255;141009;-67
2023/07/30 06:33:28;;;;;;;14.90;11.00;;;;;;;18.14;87.63;99246.12;218608;1254;141443;-68
2023/07/30 06:38:37;;;;;;;13.50;12.30;;;;;;;18.15;87.70;99246.48;218272;1255;140616;-69
2023/07/30 06:43:42;;;;;;;15.60;11.70;;;;;;;18.20;87.92;99249.53;218363;1254;141785;-66
2023/07/30 06:48:47;;;;;;;20.80;12.10;;;;;;;18.34;88.20;99252.61;218064;1254;140380;-67
2023/07/30 06:53:51;;;;;;;14.10;12.80;;;;;;;18.60;88.28;99249.31;218921;1260;140862;-67
2023/07/30 06:58:57;;;;;;;13.60;11.90;;;;;;;18.81;87.98;99258.41;217567;1256;140243;-69
2023/07/30 07:04:02;;;;;;;12.50;11.30;;;;;;;18.96;87.71;99259.93;218631;1257;141164;-70
2023/07/30 07:09:07;;;;;;;13.30;12.10;;;;;;;19.24;87.63;99264.70;219454;1256;142084;-69
2023/07/30 07:14:12;;;;;;;14.80;11.70;;;;;;;19.45;87.12;99276.90;219162;1257;140693;-69
2023/07/30 07:19:18;;;;;;;13.30;11.90;;;;;;;19.66;86.70;99279.49;219430;1256;141032;-67
2023/07/30 07:24:23;;;;;;;13.40;12.10;;;;;;;20.05;86.65;99283.39;218388;1258;142981;-70
2023/07/30 07:29:29;;;;;;;11.90;10.80;;;;;;;20.23;85.87;99292.56;218527;1258;141089;-66
2023/07/30 07:34:34;;;;;;;11.90;10.70;;;;;;;20.22;85.03;99289.51;218643;1258;141604;-65
2023/07/30 07:39:37;;;;;;;14.90;11.10;;;;;;;20.26;84.89;99287.89;220268;1257;141380;-66
2023/07/30 07:44:43;;;;;;;11.60;10.10;;;;;;;20.63;84.67;99290.21;220395;1256;140661;-66
2023/07/30 07:49:48;;;;;;;10.50;9.50;;;;;;;21.11;84.47;99284.42;220205;1257;142248;-67
2023/07/30 07:54:52;;;;;;;10.30;8.60;;;;;;;22.23;84.39;99278.36;220251;1256;140683;-67
2023/07/30 07:59:57;;;;;;;13.60;11.90;;;;;;;22.93;82.30;99273.92;220245;1257;142203;-67
2023/07/30 08:05:00;;;;;;;10.60;9.60;;;;;;;23.70;81.06;99274.88;218212;1257;140435;-69
2023/07/30 08:10:06;;;;;;;7.40;6.80;;;;;;;23.76;78.40;99271.49;217818;1257;141443;-69
2023/07/30 08:15:10;;;;;;;9.80;8.90;;;;;;;23.76;76.82;99275.13;217648;1256;139898;-68
2023/07/30 08:20:15;;;;;;;8.80;8.00;;;;;;;23.63;76.47;99280.70;218036;1257;140551;-69
2023/07/30 08:25:21;;;;;;;6.10;5.60;;;;;;;23.73;76.12;99286.05;218824;1256;140468;-69
2023/07/30 08:30:26;;;;;;;8.50;7.10;;;;;;;23.91;75.24;99284.95;218376;1257;139885;-67
2023/07/30 08:35:32;;;;;;;;;;;;;;;24.51;75.69;99291.02;218394;1256;140406;-66
2023/07/30 08:40:37;;;;;;;9.80;6.50;;;;;;;25.03;74.08;99294.95;218230;1257;126800;-67
2023/07/30 08:45:41;;;;;;;8.10;7.20;;;;;;;24.86;72.05;99306.48;217377;1257;139797;-66
2023/07/30 08:50:49;;;;;;;8.30;7.00;;;;;;;24.95;72.33;99301.07;218870;1257;141074;-67
2023/07/30 08:55:55;;;;;;;8.60;7.00;;;;;;;25.38;72.26;99304.20;217693;1257;140050;-66
2023/07/30 09:01:08;;;;;;;18.60;7.60;;;;;;;25.90;71.57;99309.14;217373;1260;141943;-66
2023/07/30 09:06:13;;;;;;;8.80;6.90;;;;;;;26.09;69.48;99306.70;218515;1257;140397;-66
2023/07/30 09:11:25;;;;;;;8.40;7.60;;;;;;;26.07;68.19;99307.82;217693;1258;139953;-69
2023/07/30 09:16:29;;;;;;;8.80;7.40;;;;;;;26.35;68.18;99304.23;218349;1257;140235;-70
2023/07/30 09:21:34;;;;;;;6.70;6.20;;;;;;;26.79;68.00;99301.15;219141;1256;140773;-67
2023/07/30 09:26:45;;;;;;;10.40;6.20;;;;;;;26.95;66.24;99306.08;218192;1256;140165;-67
2023/07/30 09:31:54;;;;;;;10.50;6.60;;;;;;;27.00;65.45;99301.45;218737;1257;141404;-66
2023/07/30 09:36:59;;;;;;;6.50;5.80;;;;;;;27.10;64.45;99301.64;218754;1256;141101;-71
2023/07/30 09:42:06;;;;;;;6.20;5.70;;;;;;;27.29;63.75;99297.59;220433;1256;140028;-69
2023/07/30 09:47:12;;;;;;;6.90;5.90;;;;;;;27.20;62.46;99290.99;217788;1256;141152;-70
2023/07/30 09:52:17;;;;;;;5.00;4.60;;;;;;;27.14;62.31;99281.80;220029;1256;140267;-73
2023/07/30 09:57:26;;;;;;;6.70;6.10;;;;;;;27.32;62.10;99279.98;219672;1256;139145;-67
2023/07/30 10:02:38;;;;;;;4.90;4.30;;;;;;;27.32;61.06;99275.39;219563;1256;139895;-66
2023/07/30 10:08:04;;;;;;;8.40;5.00;;;;;;;27.20;60.48;99272.61;218835;1257;140063;-67
2023/07/30 10:13:12;;;;;;;7.90;4.90;;;;;;;27.20;60.64;99267.29;219570;1256;140196;-67
2023/07/30 10:18:17;;;;;;;6.50;4.30;;;;;;;27.33;60.54;99260.38;217776;1256;139448;-67
2023/07/30 10:23:29;;;;;;;7.90;4.40;;;;;;;27.53;59.55;99257.30;219180;1254;139663;-67
2023/07/30 10:28:35;;;;;;;4.70;4.30;;;;;;;27.71;58.89;99246.92;219227;1256;140027;-67
2023/07/30 10:33:51;;;;;;;6.20;4.60;;;;;;;27.83;58.45;99250.75;218006;1257;139495;-67
2023/07/30 10:38:56;;;;;;;;;;;;;;;27.92;57.65;99244.50;218970;1256;141197;-67
2023/07/30 10:44:01;;;;;;;5.60;3.90;;;;;;;27.73;56.57;99245.06;218765;1257;125643;-67
2023/07/30 10:49:12;;;;;;;3.00;2.80;;;;;;;27.46;56.32;99239.32;217986;1256;139511;-66
2023/07/30 10:54:19;;;;;;;3.10;2.90;;;;;;;27.55;56.42;99238.89;218738;1256;140214;-66
2023/07/30 10:59:30;;;;;;;3.60;2.50;;;;;;;27.74;55.88;99232.35;218721;1256;232903;-68
2023/07/30 11:04:36;;;;;;;3.20;2.20;;;;;;;27.92;55.50;99223.98;218198;1259;139273;-67
2023/07/30 11:09:42;;;;;;;2.20;2.10;;;;;;;28.07;54.79;99216.86;218194;1257;160351;-66
2023/07/30 11:15:03;;;;;;;3.20;2.90;;;;;;;28.15;54.52;99212.52;220172;1256;139740;-68
2023/07/30 11:20:26;;;;;;;2.60;2.40;;;;;;;28.35;53.91;99208.98;217929;1256;140847;-67
2023/07/30 11:25:45;;;;;;;2.20;2.10;;;;;;;28.49;53.32;99206.93;218781;1257;140049;-67
2023/07/30 11:30:51;;;;;;;2.80;2.10;;;;;;;28.39;52.60;99207.88;218041;1256;139685;-67
2023/07/30 11:35:58;;;;;;;3.30;1.80;;;;;;;28.45;52.49;99209.45;217963;1256;141793;-67
2023/07/30 11:41:05;;;;;;;1.60;1.50;;;;;;;28.56;51.75;99210.26;220646;1255;140133;-68
2023/07/30 11:46:21;;;;;;;1.80;1.70;;;;;;;28.74;50.92;99206.86;219737;1255;140020;-68
2023/07/30 11:51:29;;;;;;;2.20;2.00;;;;;;;28.80;50.75;99205.39;220548;1256;140364;-68
2023/07/30 11:56:34;;;;;;;3.90;2.20;;;;;;;28.83;49.95;99204.27;220407;1255;141256;-68
2023/07/30 12:01:45;;;;;;;1.80;1.70;;;;;;;28.85;49.71;99205.80;219889;1255;142268;-69
2023/07/30 12:06:53;;;;;;;2.30;2.10;;;;;;;28.93;49.28;99202.64;220080;1255;139742;-68
2023/07/30 12:11:59;;;;;;;;;;;;;;;28.71;48.98;99196.73;219833;1256;140233;-68
2023/07/30 12:17:07;;;;;;;1.60;1.50;;;;;;;28.85;48.91;99198.27;218969;1256;126412;-67
2023/07/30 12:22:12;;;;;;;2.30;1.80;;;;;;;29.12;48.75;99195.52;219014;1257;367021;-68
2023/07/30 12:27:20;;;;;;;1.50;1.40;;;;;;;29.25;48.13;99191.40;218582;1256;139345;-68
2023/07/30 12:32:29;;;;;;;2.10;2.00;;;;;;;29.18;47.83;99185.81;218824;1256;139635;-68
2023/07/30 12:37:36;;;;;;;1.90;1.80;;;;;;;29.16;47.59;99179.75;217731;1259;140224;-68
2023/07/30 12:42:40;;;;;;;1.50;1.40;;;;;;;29.00;47.15;99180.70;218602;1256;139940;-67
2023/07/30 12:47:45;;;;;;;1.70;1.60;;;;;;;28.61;47.40;99177.84;218322;1254;139626;-68
2023/07/30 12:52:50;;;;;;;2.20;1.50;;;;;;;28.36;47.34;99174.30;218593;1254;140112;-68
2023/07/30 12:57:58;;;;;;;1.90;1.80;;;;;;;28.04;47.39;99168.10;219790;1254;140967;-68
2023/07/30 13:03:07;;;;;;;1.80;1.70;;;;;;;27.71;47.50;99166.55;219174;1259;139374;-68
2023/07/30 13:08:12;;;;;;;1.70;1.60;;;;;;;27.42;48.11;99168.69;218603;1254;140873;-68
2023/07/30 13:13:17;;;;;;;1.70;1.40;;;;;;;27.29;48.54;99166.70;217778;1254;139444;-67
2023/07/30 13:18:22;;;;;;;2.40;1.40;;;;;;;27.58;48.60;99157.46;219113;1256;140168;-67
2023/07/30 13:23:28;;;;;;;1.30;1.30;;;;;;;28.15;48.60;99148.41;220360;1257;141182;-68
2023/07/30 13:28:34;;;;;;;1.60;1.50;;;;;;;28.33;47.44;99145.05;218792;1256;140499;-68
2023/07/30 13:33:38;;;;;;;8.70;1.90;;;;;;;28.64;47.42;99143.88;220649;1256;140003;-68
2023/07/30 13:38:43;;;;;;;1.20;1.20;;;;;;;29.02;46.82;99146.95;219389;1256;140662;-68
2023/07/30 13:43:46;;;;;;;2.50;2.10;;;;;;;29.22;45.57;99142.41;220707;1255;139819;-69
2023/07/30 13:48:51;;;;;;;1.50;1.00;;;;;;;29.09;45.41;99141.47;218335;1257;140632;-67
2023/07/30 13:53:58;;;;;;;1.80;1.40;;;;;;;29.08;45.34;99137.37;219409;1256;140029;-68
2023/07/30 13:59:07;;;;;;;1.40;1.30;;;;;;;29.19;45.05;99135.70;219794;1256;143510;-68
2023/07/30 14:04:11;;;;;;;1.10;1.00;;;;;;;29.03;45.25;99136.99;218708;1255;139840;-68
2023/07/30 14:09:16;;;;;;;4.20;1.70;;;;;;;28.70;45.00;99137.54;218876;1256;139694;-67
2023/07/30 14:14:22;;;;;;;2.80;1.40;;;;;;;28.37;44.68;99135.61;217969;1257;139875;-68
2023/07/30 14:19:28;;;;;;;1.80;1.70;;;;;;;27.94;44.02;99135.44;218095;1256;140473;-67
2023/07/30 14:24:36;;;;;;;1.40;1.30;;;;;;;27.58;43.86;99132.82;218588;1255;139940;-68
2023/07/30 14:29:41;;;;;;;1.80;1.70;;;;;;;27.25;44.24;99145.13;218174;1255;139737;-68
2023/07/30 14:34:45;;;;;;;1.60;1.50;;;;;;;27.11;44.60;99147.29;217916;1257;139568;-67
2023/07/30 14:39:50;;;;;;;4.00;1.40;;;;;;;27.03;45.14;99148.19;218146;1258;139316;-68
2023/07/30 14:44:53;;;;;;;1.90;1.10;;;;;;;26.94;45.53;99150.71;218393;1257;140096;-68
2023/07/30 14:49:57;;;;;;;1.20;1.10;;;;;;;26.90;45.64;99143.49;218558;1256;139783;-68
2023/07/30 14:55:01;;;;;;;1.40;1.30;;;;;;;26.95;46.22;99140.73;217982;1256;139850;-68
2023/07/30 15:00:07;;;;;;;9.90;1.20;;;;;;;26.92;46.25;99133.15;218711;1256;141949;-67
2023/07/30 15:05:10;;;;;;;1.60;1.50;;;;;;;26.81;46.27;99131.42;217745;1256;139393;-67
2023/07/30 15:10:16;;;;;;;14.90;2.40;;;;;;;26.71;46.48;99128.30;218821;1256;140045;-67
2023/07/30 15:15:20;;;;;;;2.00;1.30;;;;;;;26.62;46.77;99131.69;218287;1256;141600;-68
2023/07/30 15:20:24;;;;;;;1.50;1.40;;;;;;;26.53;47.07;99130.41;219012;1256;140103;-68
2023/07/30 15:25:29;;;;;;;1.60;1.50;;;;;;;26.48;47.21;99128.97;220627;1255;139795;-70
2023/07/30 15:30:36;;;;;;;1.20;1.20;;;;;;;26.57;47.28;99129.72;220615;1256;139455;-67
2023/07/30 15:35:41;;;;;;;18.00;3.30;;;;;;;26.93;47.13;99126.79;220143;1255;140627;-69
2023/07/30 15:40:45;;;;;;;1.80;1.60;;;;;;;27.34;46.99;99116.14;219326;1254;139803;-67
2023/07/30 15:46:01;;;;;;;1.60;1.50;;;;;;;27.49;46.91;99108.30;220612;1254;139928;-68
2023/07/30 15:51:05;;;;;;;1.10;1.10;;;;;;;27.50;46.49;99109.09;220540;1257;139891;-69
2023/07/30 15:56:10;;;;;;;1.80;1.50;;;;;;;27.25;46.67;99115.64;218646;1255;140110;-67
2023/07/30 16:01:14;;;;;;;1.30;1.20;;;;;;;26.93;47.11;99118.96;219365;1256;140282;-67
2023/07/30 16:06:24;;;;;;;2.10;1.60;;;;;;;26.71;47.40;99125.50;219718;1255;139271;-68
2023/07/30 16:11:33;;;;;;;1.60;1.30;;;;;;;26.48;48.03;99121.48;218136;1259;139409;-68
2023/07/30 16:16:39;;;;;;;2.20;1.90;;;;;;;26.26;48.38;99127.47;219314;1255;140161;-68
2023/07/30 16:21:48;;;;;;;2.00;1.10;;;;;;;26.09;48.66;99132.11;218728;1257;139534;-67
2023/07/30 16:26:56;;;;;;;1.50;1.40;;;;;;;25.81;48.52;99130.23;218330;1257;140101;-67
2023/07/30 16:32:06;;;;;;;1.70;1.40;;;;;;;25.57;48.70;99129.11;218076;1254;140167;-67
2023/07/30 16:37:18;;;;;;;8.40;1.80;;;;;;;25.40;48.77;99132.00;218410;1254;139789;-67
2023/07/30 16:42:31;;;;;;;1.50;1.40;;;;;;;25.23;48.85;99142.43;218417;1256;139932;-67
2023/07/30 16:47:37;;;;;;;1.40;1.30;;;;;;;25.06;49.35;99146.70;218164;1256;140046;-67
2023/07/30 16:52:44;;;;;;;1.20;1.10;;;;;;;24.92;49.49;99154.98;218813;1258;249971;-67
2023/07/30 16:57:49;;;;;;;1.60;1.50;;;;;;;24.73;49.72;99165.84;217740;1257;139264;-67
2023/07/30 17:02:55;;;;;;;1.70;1.60;;;;;;;24.53;50.29;99167.78;218111;1256;140349;-67
2023/07/30 17:08:00;;;;;;;2.80;1.90;;;;;;;24.38;50.49;99166.77;218247;1259;139214;-67
2023/07/30 17:13:05;;;;;;;2.70;1.60;;;;;;;24.23;50.90;99169.13;217899;1259;140478;-67
2023/07/30 17:18:10;;;;;;;2.40;1.60;;;;;;;24.10;51.09;99172.27;218780;1257;139706;-67
2023/07/30 17:23:16;;;;;;;1.60;1.50;;;;;;;23.98;51.31;99172.33;218898;1256;140224;-66
2023/07/30 17:28:21;;;;;;;1.60;1.50;;;;;;;23.79;51.55;99179.98;219807;1256;139363;-68
2023/07/30 17:33:26;;;;;;;1.50;1.40;;;;;;;23.53;51.67;99176.71;220054;1255;141570;-68
2023/07/30 17:38:37;;;;;;;1.40;1.40;;;;;;;23.40;51.82;99172.81;220571;1255;139367;-68
2023/07/30 17:43:42;;;;;;;0.70;0.70;;;;;;;23.30;51.85;99165.21;220329;1255;139266;-67
2023/07/30 17:48:50;;;;;;;1.70;1.00;;;;;;;23.12;51.47;99151.98;220518;1255;139873;-68
2023/07/30 17:53:58;;;;;;;1.40;0.50;;;;;;;22.96;51.22;99138.14;219117;1255;140395;-67
2023/07/30 17:59:03;;;;;;;;;;;;;;;22.71;51.12;99125.55;218311;1255;141016;-67
2023/07/30 18:04:09;;;;;;;0.90;0.90;;;;;;;22.51;51.57;99161.84;218171;1256;126317;-67
2023/07/30 18:09:14;;;;;;;1.10;0.70;;;;;;;22.38;51.74;99189.48;218747;1257;139276;-67
2023/07/30 18:14:20;;;;;;;0.70;0.70;;;;;;;22.18;51.97;99206.89;218298;1257;139962;-67
2023/07/30 18:19:28;;;;;;;1.10;0.80;;;;;;;21.85;52.41;99212.84;218517;1259;140771;-67
2023/07/30 18:24:33;;;;;;;0.50;0.50;;;;;;;21.47;52.95;99209.14;218124;1256;139422;-66
2023/07/30 18:29:41;;;;;;;0.80;0.80;;;;;;;21.18;53.62;99208.45;217878;1257;140256;-66
2023/07/30 18:34:46;;;;;;;0.80;0.60;;;;;;;21.02;54.20;99230.05;218308;1257;140349;-67
2023/07/30 18:39:55;;;;;;;1.60;0.80;;;;;;;20.91;54.72;99232.82;217828;1260;142296;-67
2023/07/30 18:45:01;;;;;;;0.70;0.70;;;;;;;20.78;55.19;99230.59;217672;1256;140209;-66
2023/07/30 18:50:06;;;;;;;1.30;1.00;;;;;;;20.68;55.56;99237.48;218518;1259;139960;-67
2023/07/30 18:55:10;;;;;;;0.50;0.50;;;;;;;20.55;56.23;99236.05;217723;1257;141387;-70
2023/07/30 19:00:14;;;;;;;3.90;0.80;;;;;;;20.39;56.78;99233.59;217798;1257;139089;-69
2023/07/30 19:05:19;;;;;;;2.40;1.00;;;;;;;20.26;57.41;99236.89;218434;1257;139795;-67
2023/07/30 19:10:24;;;;;;;1.60;1.00;;;;;;;20.07;58.02;99246.10;218428;1256;139882;-64
2023/07/30 19:15:29;;;;;;;8.60;2.00;;;;;;;19.87;58.91;99245.55;219053;1257;139802;-64
2023/07/30 19:20:39;;;;;;;1.10;1.00;;;;;;;19.78;59.98;99248.38;218719;1256;223467;-66
2023/07/30 19:25:49;;;;;;;1.00;0.90;;;;;;;19.66;60.59;99255.40;217880;1257;226131;-64
2023/07/30 19:30:55;;;;;;;0.90;0.80;;;;;;;19.51;60.80;99257.70;220236;1257;142185;-66
2023/07/30 19:36:02;;;;;;;0.60;0.60;;;;;;;19.39;61.09;99259.09;220397;1256;139930;-66
2023/07/30 19:41:09;;;;;;;4.10;1.70;;;;;;;19.31;61.25;99267.25;220303;1256;140572;-69
2023/07/30 19:46:31;;;;;;;1.30;1.00;;;;;;;19.26;61.54;99266.89;219315;1257;142236;-69
2023/07/30 19:51:38;;;;;;;1.20;0.80;;;;;;;19.16;62.13;99273.30;219082;1257;140643;-68
2023/07/30 19:56:43;;;;;;;3.30;1.00;;;;;;;19.09;62.52;99270.21;218248;1257;140431;-64
2023/07/30 20:01:49;;;;;;;1.90;1.20;;;;;;;18.98;63.06;99276.23;217461;1257;140851;-67
2023/07/30 20:06:54;;;;;;;1.10;1.00;;;;;;;18.83;63.47;99277.98;218486;1259;141091;-65
2023/07/30 20:11:59;;;;;;;1.20;1.10;;;;;;;18.76;63.83;99278.27;219005;1256;140490;-65
2023/07/30 20:17:05;;;;;;;2.90;1.20;;;;;;;18.71;64.20;99282.20;217700;1259;140873;-68
2023/07/30 20:22:12;;;;;;;1.90;0.90;;;;;;;18.66;64.48;99284.04;218962;1257;141050;-64
2023/07/30 20:27:16;;;;;;;6.50;1.10;;;;;;;18.61;64.73;99281.92;217205;1257;139943;-64
2023/07/30 20:32:28;;;;;;;3.00;1.10;;;;;;;18.55;64.96;99273.67;217454;1256;140192;-64
2023/07/30 20:37:44;;;;;;;7.80;1.40;;;;;;;18.46;65.09;99276.36;217865;1257;141230;-65
2023/07/30 20:42:54;;;;;;;1.60;1.20;;;;;;;18.34;65.46;99278.58;217814;1258;139951;-68
2023/07/30 20:48:00;;;;;;;2.80;1.10;;;;;;;18.23;65.70;99277.81;217563;1257;140014;-67
2023/07/30 20:53:09;;;;;;;2.10;1.30;;;;;;;18.13;66.17;99276.95;218658;1256;141404;-69
2023/07/30 20:58:28;;;;;;;1.00;0.90;;;;;;;18.04;66.43;99274.88;219337;1257;141766;-64
2023/07/30 21:03:41;;;;;;;1.30;1.10;;;;;;;18.00;66.78;99276.69;218594;1257;139970;-65
2023/07/30 21:08:47;;;;;;;1.10;1.10;;;;;;;17.99;67.18;99277.90;217508;1257;140342;-65
2023/07/30 21:13:54;;;;;;;4.40;1.10;;;;;;;17.96;67.38;99278.48;217670;1258;144491;-64
2023/07/30 21:18:59;;;;;;;3.00;1.00;;;;;;;17.92;67.72;99270.61;219692;1257;140492;-64
2023/07/30 21:24:04;;;;;;;1.40;0.90;;;;;;;17.89;68.03;99265.91;220360;1256;140738;-65
2023/07/30 21:29:09;;;;;;;4.00;1.40;;;;;;;17.83;68.34;99267.67;220243;1259;141217;-64
2023/07/30 21:34:15;;;;;;;0.70;0.70;;;;;;;17.73;68.48;99273.39;220190;1260;141493;-65
2023/07/30 22:22:57;;;;;;;4.90;1.50;;;;;;;18.07;71.18;99264.04;214697;1298;636256;-67
2023/07/30 22:28:01;;;;;;;1.80;1.70;;;;;;;18.08;71.31;99262.61;216249;1270;139015;-67
2023/07/30 22:33:12;;;;;;;2.30;2.10;;;;;;;18.10;71.39;99258.87;215812;1267;447007;-68
2023/07/30 22:38:16;;;;;;;2.60;2.40;;;;;;;18.09;71.59;99263.73;216632;1267;139726;-67
2023/07/30 22:43:21;;;;;;;2.10;1.90;;;;;;;18.08;71.87;99275.84;217554;1266;140029;-70
2023/07/30 22:48:26;;;;;;;2.00;1.90;;;;;;;18.04;72.00;99272.52;216782;1266;139262;-71
2023/07/30 22:53:31;;;;;;;2.20;2.00;;;;;;;18.00;72.29;99280.09;216497;1267;140195;-68
2023/07/30 22:58:36;;;;;;;1.90;1.80;;;;;;;17.99;72.52;99279.35;218519;1265;139981;-68
2023/07/30 23:03:41;;;;;;;2.50;2.20;;;;;;;17.99;72.87;99271.48;216929;1267;139032;-68
2023/07/30 23:08:46;;;;;;;2.70;2.10;;;;;;;18.00;73.26;99266.66;216352;1265;139856;-68
2023/07/30 23:13:51;;;;;;;3.90;2.20;;;;;;;17.96;73.46;99262.77;218356;1265;142420;-69
2023/07/30 23:18:56;;;;;;;4.80;2.10;;;;;;;17.96;73.59;99261.21;218433;1266;139829;-71
2023/07/30 23:24:01;;;;;;;13.30;2.40;;;;;;;17.97;73.66;99256.83;217679;1266;139594;-71
2023/07/30 23:29:05;;;;;;;3.80;2.90;;;;;;;17.98;73.67;99254.45;219309;1266;139664;-69
2023/07/30 23:34:09;;;;;;;2.40;2.20;;;;;;;17.96;73.72;99260.23;217698;1262;139379;-68
2023/07/30 23:39:14;;;;;;;3.30;2.50;;;;;;;17.94;73.80;99263.56;217564;1262;138903;-69
2023/07/30 23:44:19;;;;;;;2.70;2.40;;;;;;;17.93;74.00;99261.81;218463;1262;139063;-68
2023/07/30 23:49:24;;;;;;;2.50;2.30;;;;;;;17.91;74.38;99267.73;216593;1263;139122;-69
2023/07/30 23:54:30;;;;;;;4.40;2.60;;;;;;;17.88;74.68;99273.48;217343;1264;140377;-69
2023/07/30 23:59:35;;;;;;;5.60;3.40;;;;;;;17.84;74.97;99274.45;217050;1263;140294;-69
